Terminal Aerodrome Forecast
Issued by NWS

Home | Current Version | Previous Version | Text Only | Print | Product List | Glossary On
Versions: 1 2 3 4 5 6 7 8 9 10 11 12 13
570
FTUS45 KABQ 271129
TAFLVS
TAF
KLVS 271129Z 2712/2812 VRB05KT P6SM BKN250
     FM271600 16010KT P6SM FEW120 SCT200
     FM271900 19010G17KT P6SM FEW120
     FM280100 18008KT P6SM SKC=

USA.gov is the U.S. government's official web portal to all federal, state and local government web resources and services.